createdAt,value
2022-12-31T00:00:49.418Z,0.70
2022-12-31T00:03:17.079Z,0.80
2022-12-31T00:05:44.765Z,0.35
2022-12-31T00:08:12.267Z,0.80
2022-12-31T00:10:41.765Z,0.50
2022-12-31T00:13:13.359Z,0.40
2022-12-31T00:15:42.552Z,0.60
2022-12-31T00:18:10.938Z,0.70
2022-12-31T00:20:40.931Z,0.57
2022-12-31T00:23:10.750Z,0.50
2022-12-31T00:25:38.497Z,0.63
2022-12-31T00:28:06.211Z,0.77
2022-12-31T00:30:34.756Z,0.68
2022-12-31T00:33:02.316Z,0.60
2022-12-31T00:35:29.911Z,0.50
2022-12-31T00:37:57.452Z,0.50
2022-12-31T00:40:25.054Z,0.52
2022-12-31T00:42:52.811Z,0.60
2022-12-31T00:45:20.326Z,0.60
2022-12-31T00:47:47.860Z,0.50
2022-12-31T00:50:15.468Z,0.55
2022-12-31T00:52:43.294Z,0.40
2022-12-31T00:55:10.855Z,0.60
2022-12-31T00:57:38.408Z,0.52
2022-12-31T01:00:07.731Z,0.40
2022-12-31T01:02:35.544Z,0.57
2022-12-31T01:05:03.287Z,1.40
2022-12-31T01:07:30.869Z,0.95
2022-12-31T01:09:58.497Z,0.75
2022-12-31T01:12:26.069Z,0.80
2022-12-31T01:14:53.644Z,0.60
2022-12-31T01:17:21.329Z,0.50
2022-12-31T01:19:48.916Z,0.60
2022-12-31T01:22:16.573Z,0.70
2022-12-31T01:24:44.141Z,1.20
2022-12-31T01:27:11.711Z,0.85
2022-12-31T01:29:39.322Z,0.70
2022-12-31T01:32:06.848Z,0.80
2022-12-31T01:34:34.436Z,0.57
2022-12-31T01:37:02.012Z,0.53
2022-12-31T01:39:29.544Z,0.70
2022-12-31T01:41:58.365Z,0.70
2022-12-31T01:44:25.886Z,0.70
2022-12-31T01:46:58.874Z,0.63
2022-12-31T01:49:39.026Z,0.90
2022-12-31T01:52:20.500Z,0.80
2022-12-31T01:54:54.031Z,0.73
2022-12-31T01:57:24.060Z,0.52
2022-12-31T01:59:53.309Z,0.50
2022-12-31T02:02:21.231Z,0.50
2022-12-31T02:04:52.402Z,0.40
2022-12-31T02:07:20.129Z,0.45
2022-12-31T02:09:47.649Z,0.50
2022-12-31T02:12:15.618Z,0.52
2022-12-31T02:14:47.910Z,0.40
2022-12-31T02:17:53.455Z,0.45
2022-12-31T02:20:26.778Z,0.60
2022-12-31T02:23:03.188Z,0.40
2022-12-31T02:25:48.133Z,0.20
2022-12-31T02:28:18.331Z,0.67
2022-12-31T02:30:54.389Z,0.50
2022-12-31T02:33:42.954Z,0.50
2022-12-31T02:36:18.942Z,0.68
2022-12-31T02:38:48.713Z,0.68
2022-12-31T02:41:38.548Z,0.60
2022-12-31T02:44:34.789Z,0.50
2022-12-31T02:47:08.915Z,0.55
2022-12-31T02:49:55.361Z,0.45
2022-12-31T02:52:22.839Z,0.60
2022-12-31T02:55:14.028Z,0.50
2022-12-31T02:57:47.237Z,0.45
2022-12-31T03:00:35.826Z,0.30
2022-12-31T03:03:06.415Z,0.57
2022-12-31T03:05:39.364Z,0.50
2022-12-31T03:08:07.078Z,0.50
2022-12-31T03:10:34.951Z,0.50
2022-12-31T03:13:03.089Z,0.60
2022-12-31T03:15:33.345Z,0.70
2022-12-31T03:18:14.484Z,0.60
2022-12-31T03:21:09.764Z,0.50
2022-12-31T03:23:37.311Z,0.57
2022-12-31T03:26:12.144Z,0.60
2022-12-31T03:28:47.888Z,0.40
2022-12-31T03:31:16.411Z,0.47
2022-12-31T03:33:44.070Z,0.50
2022-12-31T03:36:14.843Z,0.70
2022-12-31T03:38:42.623Z,0.40
2022-12-31T03:41:11.650Z,0.50
2022-12-31T03:43:39.273Z,0.60
2022-12-31T03:46:06.856Z,0.70
2022-12-31T03:48:34.502Z,0.60
2022-12-31T03:51:02.564Z,0.68
2022-12-31T03:53:30.391Z,0.60
2022-12-31T03:55:57.963Z,0.45
2022-12-31T03:58:25.542Z,0.40
2022-12-31T04:00:53.114Z,0.60
2022-12-31T04:03:20.899Z,0.40
2022-12-31T04:05:54.062Z,0.32
2022-12-31T04:08:21.644Z,0.45
2022-12-31T04:10:49.205Z,0.57
2022-12-31T04:13:16.792Z,0.57
2022-12-31T04:15:44.535Z,0.60
2022-12-31T04:18:12.689Z,0.40
2022-12-31T04:20:40.463Z,0.40
2022-12-31T04:23:08.047Z,0.40
2022-12-31T04:25:35.561Z,0.50
2022-12-31T04:28:03.244Z,0.50
2022-12-31T04:30:30.744Z,0.50
2022-12-31T04:32:58.407Z,0.60
2022-12-31T04:35:25.997Z,0.50
2022-12-31T04:37:53.748Z,0.70
2022-12-31T04:40:21.367Z,0.50
2022-12-31T04:42:48.925Z,0.30
2022-12-31T04:45:16.474Z,0.32
2022-12-31T04:47:44.071Z,0.50
2022-12-31T04:50:11.620Z,0.40
2022-12-31T04:52:42.898Z,0.40
2022-12-31T04:55:12.088Z,0.30
2022-12-31T04:57:40.982Z,0.20
2022-12-31T05:00:09.093Z,0.20
2022-12-31T05:02:36.783Z,0.40
2022-12-31T05:05:04.863Z,0.52
2022-12-31T05:07:32.362Z,0.30
2022-12-31T05:09:59.949Z,0.30
2022-12-31T05:12:27.573Z,0.20
2022-12-31T05:14:55.175Z,0.20
2022-12-31T05:17:22.725Z,0.50
2022-12-31T05:19:50.338Z,0.40
2022-12-31T05:22:30.374Z,0.30
2022-12-31T05:24:58.815Z,0.30
2022-12-31T05:27:28.261Z,0.30
2022-12-31T05:29:55.836Z,0.28
2022-12-31T05:32:23.413Z,0.50
2022-12-31T05:34:51.140Z,0.30
2022-12-31T05:37:20.222Z,0.30
2022-12-31T05:39:47.749Z,0.22
2022-12-31T05:42:16.490Z,0.30
2022-12-31T05:44:44.268Z,0.30
2022-12-31T05:47:11.761Z,0.20
2022-12-31T05:49:39.513Z,0.57
2022-12-31T05:52:08.552Z,0.35
2022-12-31T05:54:36.772Z,0.28
2022-12-31T05:57:05.346Z,0.50
2022-12-31T05:59:33.639Z,0.38
2022-12-31T06:02:01.205Z,0.30
2022-12-31T06:04:28.852Z,0.22
2022-12-31T06:06:56.554Z,0.20
2022-12-31T06:09:24.283Z,0.38
2022-12-31T06:11:52.376Z,0.30
2022-12-31T06:14:20.045Z,0.33
2022-12-31T06:16:47.631Z,0.38
2022-12-31T06:19:15.200Z,0.20
2022-12-31T06:21:42.703Z,0.20
2022-12-31T06:24:10.488Z,0.40
2022-12-31T06:26:38.086Z,0.20
2022-12-31T06:29:05.832Z,0.43
2022-12-31T06:31:33.414Z,0.20
2022-12-31T06:34:00.990Z,0.30
2022-12-31T06:36:28.649Z,0.20
2022-12-31T06:38:56.356Z,0.33
2022-12-31T06:41:23.979Z,0.45
2022-12-31T06:43:51.585Z,0.30
2022-12-31T06:46:19.233Z,0.43
2022-12-31T06:48:49.499Z,0.50
2022-12-31T06:51:19.775Z,0.60
2022-12-31T06:53:48.622Z,0.70
2022-12-31T06:56:19.941Z,0.50
2022-12-31T06:58:48.224Z,0.38
2022-12-31T07:01:34.891Z,0.38
2022-12-31T07:04:12.795Z,0.60
2022-12-31T07:07:01.482Z,0.60
2022-12-31T07:09:45.740Z,0.50
2022-12-31T07:12:39.110Z,0.40
2022-12-31T07:15:20.066Z,0.60
2022-12-31T07:18:00.914Z,0.60
2022-12-31T07:20:29.021Z,0.70
2022-12-31T07:22:56.834Z,0.50
2022-12-31T07:25:25.603Z,0.40
2022-12-31T07:28:21.139Z,0.40
2022-12-31T07:31:15.726Z,0.57
2022-12-31T07:33:58.464Z,0.60
2022-12-31T07:36:50.585Z,0.45
2022-12-31T07:39:31.487Z,0.90
2022-12-31T07:42:33.288Z,1.00
2022-12-31T07:45:11.704Z,0.80
2022-12-31T07:47:39.667Z,0.88
2022-12-31T07:50:15.695Z,0.90
2022-12-31T07:52:44.871Z,0.77
2022-12-31T07:55:13.022Z,0.95
2022-12-31T07:58:10.881Z,0.90
2022-12-31T08:00:38.601Z,0.70
2022-12-31T08:03:25.236Z,0.80
2022-12-31T08:06:10.975Z,0.80
2022-12-31T08:08:49.864Z,0.70
2022-12-31T08:11:36.636Z,1.07
2022-12-31T08:14:08.743Z,1.05
2022-12-31T08:16:36.647Z,0.85
2022-12-31T08:19:04.866Z,1.27
2022-12-31T08:21:38.677Z,1.10
2022-12-31T08:24:35.848Z,1.00
2022-12-31T08:27:20.624Z,1.30
2022-12-31T08:30:17.851Z,1.20
2022-12-31T08:33:00.342Z,1.10
2022-12-31T08:35:33.910Z,0.82
2022-12-31T08:38:07.136Z,0.70
2022-12-31T08:40:56.971Z,0.90
2022-12-31T08:43:44.832Z,1.02
2022-12-31T08:46:28.089Z,1.10
2022-12-31T08:48:56.108Z,0.70
2022-12-31T08:51:26.057Z,0.83
2022-12-31T08:53:55.373Z,0.70
2022-12-31T08:56:32.881Z,0.73
2022-12-31T08:59:31.775Z,0.77
2022-12-31T09:02:17.055Z,0.80
2022-12-31T09:05:00.023Z,1.30
2022-12-31T09:07:41.083Z,1.38
2022-12-31T09:10:20.919Z,1.00
2022-12-31T09:13:10.050Z,1.42
2022-12-31T09:15:44.065Z,1.40
2022-12-31T09:18:12.865Z,1.30
2022-12-31T09:20:43.305Z,1.60
2022-12-31T09:23:13.378Z,1.65
2022-12-31T09:26:10.141Z,1.92
2022-12-31T09:29:09.709Z,1.77
2022-12-31T09:31:45.755Z,2.03
2022-12-31T09:34:35.266Z,2.00
2022-12-31T09:37:22.157Z,2.00
2022-12-31T09:39:49.912Z,1.80
2022-12-31T09:42:58.822Z,1.80
2022-12-31T09:45:29.293Z,2.43
2022-12-31T09:48:25.593Z,1.92
2022-12-31T09:51:14.246Z,1.70
2022-12-31T09:53:59.662Z,1.98
2022-12-31T09:56:35.596Z,1.95
2022-12-31T09:59:12.971Z,1.70
2022-12-31T10:01:51.454Z,1.60
2022-12-31T10:04:56.086Z,1.90
2022-12-31T10:07:32.996Z,1.52
2022-12-31T10:10:07.489Z,1.50
2022-12-31T10:12:47.366Z,1.80
2022-12-31T10:15:47.341Z,2.05
2022-12-31T10:18:36.461Z,1.77
2022-12-31T10:22:00.925Z,1.70
2022-12-31T10:24:34.260Z,1.38
2022-12-31T10:27:37.106Z,1.30
2022-12-31T10:30:22.755Z,1.20
2022-12-31T10:33:16.513Z,1.40
2022-12-31T10:35:54.665Z,1.58
2022-12-31T10:38:43.641Z,1.27
2022-12-31T10:41:23.541Z,1.20
2022-12-31T10:44:12.869Z,1.50
2022-12-31T10:46:58.972Z,1.52
2022-12-31T10:49:44.883Z,1.80
2022-12-31T10:52:15.278Z,1.60
2022-12-31T10:55:20.190Z,1.63
2022-12-31T10:58:09.461Z,1.80
2022-12-31T11:01:04.760Z,1.63
2022-12-31T11:03:38.335Z,1.70
2022-12-31T11:06:43.244Z,1.92
2022-12-31T11:09:34.529Z,2.23
2022-12-31T11:12:11.665Z,1.55
2022-12-31T11:14:48.159Z,2.08
2022-12-31T11:17:51.902Z,1.85
2022-12-31T11:20:57.677Z,2.38
2022-12-31T11:23:43.170Z,2.43
2022-12-31T11:26:13.595Z,2.15
2022-12-31T11:29:10.490Z,2.50
2022-12-31T11:32:20.055Z,2.15
2022-12-31T11:35:07.925Z,2.10
2022-12-31T11:38:04.501Z,2.30
2022-12-31T11:40:54.348Z,2.80
2022-12-31T11:43:28.161Z,2.60
2022-12-31T11:46:14.721Z,2.25
2022-12-31T11:48:58.213Z,2.60
2022-12-31T11:51:25.941Z,2.93
2022-12-31T11:54:30.051Z,2.63
2022-12-31T11:57:46.813Z,2.60
2022-12-31T12:00:23.192Z,2.50
2022-12-31T12:03:02.182Z,2.28
2022-12-31T12:05:30.520Z,2.63
2022-12-31T12:07:59.964Z,2.05
2022-12-31T12:10:37.241Z,2.60
2022-12-31T12:13:31.144Z,2.38
2022-12-31T12:16:06.382Z,1.90
2022-12-31T12:18:48.284Z,2.07
2022-12-31T12:21:20.642Z,1.98
2022-12-31T12:24:03.046Z,2.10
2022-12-31T12:26:44.532Z,2.10
2022-12-31T12:29:18.960Z,2.05
2022-12-31T12:31:59.634Z,2.40
2022-12-31T12:34:30.175Z,1.77
2022-12-31T12:36:57.723Z,1.98
2022-12-31T12:39:28.495Z,1.90
2022-12-31T12:42:08.386Z,2.10
2022-12-31T12:44:36.119Z,2.17
2022-12-31T12:47:07.143Z,1.92
2022-12-31T12:49:46.009Z,2.67
2022-12-31T12:52:49.245Z,2.00
2022-12-31T12:55:44.699Z,1.70
2022-12-31T12:58:27.603Z,1.90
2022-12-31T13:01:04.106Z,1.80
2022-12-31T13:04:31.923Z,1.83
2022-12-31T13:06:46.403Z,1.90
2022-12-31T13:09:25.705Z,2.17
2022-12-31T13:12:18.134Z,1.97
2022-12-31T13:15:00.917Z,2.53
2022-12-31T13:17:40.587Z,2.60
2022-12-31T13:20:14.403Z,2.58
2022-12-31T13:23:00.375Z,2.65
2022-12-31T13:25:54.007Z,1.97
2022-12-31T13:28:24.040Z,2.10
2022-12-31T13:31:24.219Z,2.10
2022-12-31T13:33:56.889Z,2.00
2022-12-31T13:36:27.709Z,2.72
2022-12-31T13:39:00.728Z,2.00
2022-12-31T13:42:00.601Z,2.30
2022-12-31T13:44:39.822Z,2.00
2022-12-31T13:47:20.588Z,2.25
2022-12-31T13:49:55.162Z,2.28
2022-12-31T13:52:38.828Z,2.13
2022-12-31T13:55:33.524Z,1.85
2022-12-31T13:58:35.710Z,1.90
2022-12-31T14:01:18.398Z,2.40
2022-12-31T14:03:45.981Z,2.30
2022-12-31T14:06:22.597Z,1.93
2022-12-31T14:08:53.437Z,1.88
2022-12-31T14:11:53.329Z,1.88
2022-12-31T14:14:57.726Z,1.90
2022-12-31T14:17:40.878Z,2.08
2022-12-31T14:20:29.467Z,1.97
2022-12-31T14:23:16.200Z,2.00
2022-12-31T14:25:57.676Z,2.00
2022-12-31T14:28:59.676Z,2.10
2022-12-31T14:31:51.931Z,2.03
2022-12-31T14:34:47.531Z,1.80
2022-12-31T14:37:14.988Z,1.70
2022-12-31T14:39:57.157Z,1.67
2022-12-31T14:42:50.262Z,1.77
2022-12-31T14:45:46.336Z,1.20
2022-12-31T14:48:41.088Z,1.50
2022-12-31T14:51:09.640Z,1.48
2022-12-31T14:53:37.227Z,1.67
2022-12-31T14:56:28.546Z,1.33
2022-12-31T14:58:58.771Z,1.60
2022-12-31T15:01:26.605Z,1.30
2022-12-31T15:03:58.029Z,1.40
2022-12-31T15:06:40.330Z,1.13
2022-12-31T15:09:16.347Z,1.50
2022-12-31T15:12:17.658Z,1.58
2022-12-31T15:15:11.412Z,1.53
2022-12-31T15:18:14.092Z,1.67
2022-12-31T15:21:06.803Z,1.92
2022-12-31T15:23:42.287Z,1.88
2022-12-31T15:26:24.138Z,1.98
2022-12-31T15:28:59.688Z,1.90
2022-12-31T15:31:28.134Z,1.98
2022-12-31T15:34:23.690Z,1.33
2022-12-31T15:36:57.019Z,1.50
2022-12-31T15:39:25.797Z,1.90
2022-12-31T15:44:55.495Z,2.30
2022-12-31T15:47:29.509Z,2.00
2022-12-31T15:50:02.395Z,1.90
2022-12-31T15:52:43.731Z,2.00
2022-12-31T15:55:24.648Z,1.90
2022-12-31T15:57:55.947Z,2.20
2022-12-31T16:00:24.474Z,2.38
2022-12-31T16:02:55.192Z,2.65
2022-12-31T16:05:25.989Z,1.60
2022-12-31T16:07:58.598Z,1.70
2022-12-31T16:10:32.221Z,1.80
2022-12-31T16:13:00.724Z,1.50
2022-12-31T16:15:34.162Z,1.42
2022-12-31T16:18:09.838Z,1.35
2022-12-31T16:20:43.486Z,1.40
2022-12-31T16:23:42.228Z,1.42
2022-12-31T16:26:11.395Z,1.48
2022-12-31T16:28:38.986Z,1.52
2022-12-31T16:31:14.032Z,1.20
2022-12-31T16:33:41.651Z,1.60
2022-12-31T16:36:23.594Z,1.90
2022-12-31T16:38:52.074Z,2.00
2022-12-31T16:41:21.161Z,1.80
2022-12-31T16:43:49.937Z,1.90
2022-12-31T16:46:31.319Z,1.83
2022-12-31T16:49:16.059Z,1.10
2022-12-31T16:51:44.473Z,1.00
2022-12-31T16:54:24.765Z,1.70
2022-12-31T16:56:52.728Z,1.70
2022-12-31T16:59:41.943Z,1.50
2022-12-31T17:02:19.091Z,1.80
2022-12-31T17:04:55.336Z,1.20
2022-12-31T17:07:32.657Z,1.30
2022-12-31T17:10:09.125Z,1.33
2022-12-31T17:13:17.506Z,1.60
2022-12-31T17:15:41.707Z,1.52
2022-12-31T17:18:18.794Z,1.42
2022-12-31T17:20:47.495Z,1.52
2022-12-31T17:23:32.429Z,1.45
2022-12-31T17:26:20.229Z,1.17
2022-12-31T17:28:50.387Z,1.88
2022-12-31T17:31:34.205Z,1.80
2022-12-31T17:34:22.401Z,2.03
2022-12-31T17:36:59.028Z,1.70
2022-12-31T17:39:38.765Z,1.73
2022-12-31T17:42:10.356Z,1.50
2022-12-31T17:44:40.977Z,1.48
2022-12-31T17:47:14.035Z,1.50
2022-12-31T17:49:45.115Z,1.45
2022-12-31T17:52:15.187Z,1.77
2022-12-31T17:54:42.929Z,1.58
2022-12-31T17:57:26.524Z,1.55
2022-12-31T17:59:54.402Z,1.75
2022-12-31T18:02:22.058Z,2.03
2022-12-31T18:04:49.801Z,1.80
2022-12-31T18:07:17.357Z,1.40
2022-12-31T18:09:44.898Z,1.55
2022-12-31T18:12:14.150Z,1.70
2022-12-31T18:14:44.558Z,1.80
2022-12-31T18:17:16.496Z,1.87
2022-12-31T18:22:31.802Z,2.20
2022-12-31T18:24:59.394Z,2.20
2022-12-31T18:27:27.178Z,2.40
2022-12-31T18:29:59.111Z,2.27
2022-12-31T18:32:33.076Z,2.60
2022-12-31T18:35:02.063Z,3.10
2022-12-31T18:37:30.002Z,3.67
2022-12-31T18:39:57.525Z,2.50
2022-12-31T18:42:27.002Z,2.53
2022-12-31T18:44:54.831Z,2.38
2022-12-31T18:47:23.332Z,2.50
2022-12-31T18:49:51.338Z,2.35
2022-12-31T18:52:21.844Z,2.60
2022-12-31T18:54:49.926Z,3.17
2022-12-31T18:57:17.482Z,2.33
2022-12-31T18:59:45.006Z,2.15
2022-12-31T19:02:19.432Z,2.30
2022-12-31T19:04:48.229Z,2.08
2022-12-31T19:07:15.739Z,2.40
2022-12-31T19:09:45.929Z,2.72
2022-12-31T19:12:15.278Z,2.75
2022-12-31T19:14:42.955Z,2.53
2022-12-31T19:19:36.825Z,2.47
2022-12-31T19:22:04.459Z,2.50
2022-12-31T19:24:32.027Z,2.33
2022-12-31T19:27:01.368Z,2.58
2022-12-31T19:29:29.220Z,1.88
2022-12-31T19:31:58.286Z,2.80
2022-12-31T19:34:25.962Z,2.60
2022-12-31T19:36:53.860Z,2.67
2022-12-31T19:39:21.564Z,2.28
2022-12-31T19:41:56.410Z,2.10
2022-12-31T19:44:26.708Z,1.83
2022-12-31T19:46:54.365Z,1.73
2022-12-31T19:49:22.534Z,2.03
2022-12-31T19:51:50.157Z,1.60
2022-12-31T19:54:17.767Z,1.83
2022-12-31T19:56:45.287Z,1.80
2022-12-31T19:59:12.877Z,1.80
2022-12-31T20:01:40.526Z,1.60
2022-12-31T20:04:08.160Z,1.55
2022-12-31T20:06:35.749Z,1.70
2022-12-31T20:09:03.979Z,1.60
2022-12-31T20:11:31.617Z,1.42
2022-12-31T20:13:59.332Z,1.20
2022-12-31T20:16:27.190Z,1.73
2022-12-31T20:18:54.862Z,1.55
2022-12-31T20:21:25.153Z,1.30
2022-12-31T20:23:54.140Z,1.75
2022-12-31T20:26:23.075Z,1.15
2022-12-31T20:28:51.180Z,1.10
2022-12-31T20:31:21.497Z,1.10
2022-12-31T20:33:49.566Z,0.70
2022-12-31T20:36:17.757Z,0.80
2022-12-31T20:38:45.826Z,0.80
2022-12-31T20:41:16.501Z,0.60
2022-12-31T20:43:44.913Z,0.70
2022-12-31T20:46:18.979Z,0.80
2022-12-31T20:48:48.264Z,0.75
2022-12-31T20:51:17.919Z,0.75
2022-12-31T20:53:50.235Z,0.50
2022-12-31T20:56:18.897Z,0.70
2022-12-31T20:58:47.306Z,0.60
2022-12-31T21:01:16.185Z,0.77
2022-12-31T21:06:34.908Z,0.47
2022-12-31T21:09:04.978Z,0.80
2022-12-31T21:11:51.259Z,0.80
2022-12-31T21:14:19.698Z,0.55
2022-12-31T21:16:47.371Z,0.75
2022-12-31T21:19:15.031Z,0.60
2022-12-31T21:21:42.667Z,0.80
2022-12-31T21:24:10.722Z,0.70
2022-12-31T21:26:38.321Z,0.63
2022-12-31T21:29:05.889Z,0.95
2022-12-31T21:31:33.496Z,0.50
2022-12-31T21:34:01.150Z,0.80
2022-12-31T21:36:28.688Z,0.70
2022-12-31T21:38:56.635Z,0.70
2022-12-31T21:41:42.782Z,0.75
2022-12-31T21:44:10.369Z,1.02
2022-12-31T21:46:37.934Z,0.38
2022-12-31T21:49:05.866Z,0.70
2022-12-31T21:51:53.371Z,0.70
2022-12-31T21:54:41.018Z,0.80
2022-12-31T21:57:08.765Z,0.50
2022-12-31T22:00:23.972Z,0.55
2022-12-31T22:03:01.036Z,0.53
2022-12-31T22:05:28.652Z,0.50
2022-12-31T22:07:56.189Z,0.65
2022-12-31T22:10:23.790Z,0.50
2022-12-31T22:12:51.447Z,0.60
2022-12-31T22:15:19.034Z,0.50
2022-12-31T22:17:46.857Z,0.38
2022-12-31T22:20:27.005Z,1.00
2022-12-31T22:22:55.677Z,0.50
2022-12-31T22:25:23.237Z,1.08
2022-12-31T22:28:27.509Z,1.10
2022-12-31T22:30:38.402Z,0.80
2022-12-31T22:33:05.975Z,1.10
2022-12-31T22:35:33.586Z,0.70
2022-12-31T22:38:08.106Z,0.85
2022-12-31T22:40:39.399Z,1.00
2022-12-31T22:43:07.017Z,0.73
2022-12-31T22:45:36.459Z,0.77
2022-12-31T22:48:04.233Z,0.40
2022-12-31T22:50:32.130Z,0.70
2022-12-31T22:52:59.674Z,0.20
2022-12-31T22:55:27.287Z,0.93
2022-12-31T22:57:54.899Z,1.25
2022-12-31T23:00:42.701Z,0.70
2022-12-31T23:03:10.363Z,0.75
2022-12-31T23:05:37.966Z,1.00
2022-12-31T23:08:15.600Z,0.30
2022-12-31T23:11:01.679Z,0.57
2022-12-31T23:14:00.251Z,0.68
2022-12-31T23:16:48.915Z,0.60
2022-12-31T23:19:34.949Z,0.80
2022-12-31T23:22:21.028Z,0.52
2022-12-31T23:24:48.618Z,0.70
2022-12-31T23:27:16.189Z,0.70
2022-12-31T23:29:47.215Z,0.80
2022-12-31T23:32:16.883Z,1.17
2022-12-31T23:34:46.421Z,0.77
2022-12-31T23:37:14.506Z,1.40
2022-12-31T23:39:42.233Z,0.45
2022-12-31T23:42:10.439Z,1.42
2022-12-31T23:44:38.051Z,1.00
2022-12-31T23:47:05.747Z,0.90
2022-12-31T23:49:33.400Z,0.93
2022-12-31T23:52:01.037Z,0.70
2022-12-31T23:54:28.814Z,0.60
2022-12-31T23:56:56.476Z,0.97
2022-12-31T23:59:24.138Z,0.43
